Time;durP1;ratioP1;P1;durP2;ratioP2;P2;SDS_P1;SDS_P2;PMS_P1;PMS_P2;Temp;Humidity;BMP_temperature;BMP_pressure;BME280_temperature;BME280_humidity;BME280_pressure;Samples;Min_cycle;Max_cycle;Signal;HPM_P1;HPM_P2
2023/09/12 00:01:06;;;;;;;19.85;9.25;;;;;;;;;;4971930;28;20397;-80
2023/09/12 00:03:44;;;;;;;21.00;8.48;;;;;;;;;;4973756;28;20393;-80
2023/09/12 00:06:19;;;;;;;24.85;8.50;;;;;;;;;;4972553;28;20114;-80
2023/09/12 00:08:56;;;;;;;21.80;9.25;;;;;;;;;;4974507;28;20093;-80
2023/09/12 00:11:28;;;;;;;20.05;8.75;;;;;;;;;;4975048;28;20054;-80
2023/09/12 00:14:17;;;;;;;18.75;8.25;;;;;;;;;;4971080;28;20051;-80
2023/09/12 00:16:55;;;;;;;21.30;9.30;;;;;;;;;;4975376;28;20361;-80
2023/09/12 00:19:29;;;;;;;22.02;9.55;;;;;;;;;;4974896;28;20043;-79
2023/09/12 00:22:03;;;;;;;22.13;8.77;;;;;;;;;;4975349;28;20097;-80
2023/09/12 00:24:39;;;;;;;;;;;;;;;;;;4973252;28;20034;-80
2023/09/12 00:27:16;;;;;;;17.63;8.68;;;;;;;;;;4973096;28;19917;-80
2023/09/12 00:29:51;;;;;;;16.42;8.77;;;;;;;;;;4955495;28;20047;-80
2023/09/12 00:32:26;;;;;;;23.60;9.80;;;;;;;;;;4955202;28;20042;-80
2023/09/12 00:35:04;;;;;;;20.55;9.70;;;;;;;;;;4973992;28;20046;-79
2023/09/12 00:37:42;;;;;;;22.38;8.55;;;;;;;;;;4973652;28;20038;-80
2023/09/12 00:40:19;;;;;;;22.40;9.05;;;;;;;;;;4972625;28;20042;-80
2023/09/12 00:42:54;;;;;;;17.85;8.43;;;;;;;;;;4971904;28;20047;-80
2023/09/12 00:45:30;;;;;;;20.38;8.82;;;;;;;;;;4955138;28;20054;-80
2023/09/12 00:48:08;;;;;;;19.75;8.82;;;;;;;;;;4973600;28;20494;-80
2023/09/12 00:50:45;;;;;;;16.65;8.50;;;;;;;;;;4956187;28;20057;-79
2023/09/12 00:53:20;;;;;;;18.52;8.30;;;;;;;;;;4974051;28;20038;-80
2023/09/12 00:55:57;;;;;;;13.55;7.18;;;;;;;;;;4956705;28;20051;-80
2023/09/12 00:58:33;;;;;;;15.80;7.13;;;;;;;;;;4972921;28;20446;-80
2023/09/12 01:01:16;;;;;;;14.65;7.20;;;;;;;;;;4975485;28;20057;-79
2023/09/12 01:03:56;;;;;;;21.40;7.60;;;;;;;;;;4956772;28;20043;-80
2023/09/12 01:06:32;;;;;;;15.57;7.93;;;;;;;;;;4955537;28;20057;-79
2023/09/12 01:09:09;;;;;;;17.98;8.38;;;;;;;;;;4973211;28;20042;-79
2023/09/12 01:11:49;;;;;;;15.38;7.60;;;;;;;;;;4976362;28;20039;-80
2023/09/12 01:15:13;;;;;;;15.48;7.53;;;;;;;;;;4897540;29;20061;-80
2023/09/12 01:17:55;;;;;;;18.63;8.05;;;;;;;;;;4899145;29;20052;-81
2023/09/12 01:20:35;;;;;;;17.23;7.63;;;;;;;;;;4897945;29;20063;-80
2023/09/12 01:23:50;;;;;;;20.08;8.55;;;;;;;;;;4897843;29;20495;-78
2023/09/12 01:26:51;;;;;;;20.95;10.32;;;;;;;;;;4888081;29;20063;-79
2023/09/12 01:29:35;;;;;;;21.35;7.45;;;;;;;;;;4894731;29;20244;-81
2023/09/12 01:32:19;;;;;;;20.65;9.02;;;;;;;;;;4894874;29;20055;-81
2023/09/12 01:35:22;;;;;;;21.50;9.65;;;;;;;;;;4896735;29;20055;-82
2023/09/12 01:37:54;;;;;;;30.33;12.48;;;;;;;;;;4895338;29;20519;-82
2023/09/12 01:40:43;;;;;;;24.60;10.80;;;;;;;;;;4896171;29;20408;-81
2023/09/12 01:43:23;;;;;;;24.33;10.50;;;;;;;;;;4881082;29;20044;-81
2023/09/12 01:46:04;;;;;;;23.00;10.32;;;;;;;;;;4938695;28;20058;-82
2023/09/12 01:48:37;;;;;;;22.23;10.00;;;;;;;;;;4955644;28;20043;-81
2023/09/12 01:51:16;;;;;;;23.13;11.20;;;;;;;;;;4955928;28;20054;-81
2023/09/12 01:53:53;;;;;;;23.25;9.43;;;;;;;;;;4955794;28;20050;-83
2023/09/12 01:57:03;;;;;;;19.67;8.10;;;;;;;;;;4956957;28;20042;-81
2023/09/12 01:59:39;;;;;;;18.45;8.35;;;;;;;;;;4940450;28;20058;-82
2023/09/12 02:02:14;;;;;;;19.23;8.70;;;;;;;;;;4954849;28;20394;-82
2023/09/12 02:05:19;;;;;;;21.45;10.25;;;;;;;;;;4972792;28;20042;-83
2023/09/12 02:07:52;;;;;;;22.45;9.93;;;;;;;;;;4973141;28;20478;-80
2023/09/12 02:10:26;;;;;;;27.92;11.80;;;;;;;;;;4958264;28;20055;-79
2023/09/12 02:13:00;;;;;;;19.15;9.70;;;;;;;;;;4958855;28;20397;-80
2023/09/12 02:15:33;;;;;;;28.20;9.77;;;;;;;;;;4976103;28;20043;-81
2023/09/12 02:18:07;;;;;;;25.58;9.85;;;;;;;;;;4958809;28;20485;-80
2023/09/12 02:20:41;;;;;;;27.10;10.82;;;;;;;;;;4957792;28;20505;-81
2023/09/12 02:23:16;;;;;;;23.48;10.40;;;;;;;;;;4973024;28;20398;-81
2023/09/12 02:25:50;;;;;;;21.58;9.13;;;;;;;;;;4975500;28;20514;-81
2023/09/12 02:28:26;;;;;;;21.33;9.60;;;;;;;;;;4956264;28;20129;-81
2023/09/12 02:30:57;;;;;;;18.70;9.52;;;;;;;;;;4972729;28;20035;-82
2023/09/12 02:33:30;;;;;;;19.33;9.68;;;;;;;;;;4975577;28;20386;-83
2023/09/12 02:36:03;;;;;;;21.13;9.32;;;;;;;;;;4973467;28;20035;-81
2023/09/12 02:38:38;;;;;;;25.45;9.55;;;;;;;;;;4939692;28;20046;-80
2023/09/12 02:41:09;;;;;;;22.05;9.57;;;;;;;;;;4975384;28;20039;-82
2023/09/12 02:43:42;;;;;;;21.92;10.57;;;;;;;;;;4955426;28;20046;-81
2023/09/12 02:46:17;;;;;;;22.52;9.57;;;;;;;;;;4957395;28;20061;-81
2023/09/12 02:48:51;;;;;;;24.77;10.43;;;;;;;;;;4957339;28;20047;-80
2023/09/12 02:51:24;;;;;;;23.08;10.60;;;;;;;;;;4956144;28;20042;-82
2023/09/12 02:53:57;;;;;;;27.40;10.40;;;;;;;;;;4972560;28;20045;-80
2023/09/12 02:56:32;;;;;;;29.42;10.95;;;;;;;;;;4957594;28;20043;-81
2023/09/12 02:59:06;;;;;;;26.10;11.50;;;;;;;;;;4953813;28;20066;-80
2023/09/12 03:01:39;;;;;;;27.88;10.35;;;;;;;;;;4973554;28;20039;-80
2023/09/12 03:04:11;;;;;;;26.95;9.95;;;;;;;;;;4957253;28;20043;-81
2023/09/12 03:06:43;;;;;;;22.95;9.32;;;;;;;;;;4957230;28;20046;-80
2023/09/12 03:09:16;;;;;;;22.17;9.05;;;;;;;;;;4970572;28;20055;-80
2023/09/12 03:11:49;;;;;;;20.77;7.68;;;;;;;;;;4955824;29;20050;-81
2023/09/12 03:14:21;;;;;;;16.05;7.22;;;;;;;;;;4940400;28;20046;-83
2023/09/12 03:16:55;;;;;;;18.13;7.85;;;;;;;;;;4958012;28;20046;-81
2023/09/12 03:19:31;;;;;;;18.77;7.85;;;;;;;;;;4942641;28;20054;-79
2023/09/12 03:22:05;;;;;;;16.75;8.07;;;;;;;;;;4976274;28;20474;-79
2023/09/12 03:24:37;;;;;;;20.90;8.38;;;;;;;;;;4957386;28;20051;-82
2023/09/12 03:27:11;;;;;;;16.67;7.97;;;;;;;;;;4942055;28;20054;-82
2023/09/12 03:29:46;;;;;;;15.35;7.45;;;;;;;;;;4957379;28;20065;-79
2023/09/12 03:32:17;;;;;;;16.02;6.63;;;;;;;;;;4957952;28;20386;-81
2023/09/12 03:34:50;;;;;;;19.02;6.72;;;;;;;;;;4957363;28;20054;-79
2023/09/12 03:37:28;;;;;;;15.25;6.60;;;;;;;;;;4959494;28;20054;-80
2023/09/12 03:40:00;;;;;;;13.13;5.70;;;;;;;;;;4957884;28;20042;-80
2023/09/12 03:42:31;;;;;;;14.27;7.28;;;;;;;;;;4976003;28;20038;-80
2023/09/12 03:45:12;;;;;;;14.98;6.45;;;;;;;;;;4957885;28;20051;-80
2023/09/12 03:47:46;;;;;;;18.75;7.03;;;;;;;;;;4957097;28;20053;-80
2023/09/12 03:50:19;;;;;;;14.85;6.13;;;;;;;;;;4957403;28;20051;-79
2023/09/12 03:52:50;;;;;;;14.52;6.22;;;;;;;;;;4957314;28;20050;-79
2023/09/12 03:55:20;;;;;;;14.25;5.90;;;;;;;;;;4957133;28;20042;-80
2023/09/12 03:57:52;;;;;;;11.77;5.60;;;;;;;;;;4957964;28;20050;-80
2023/09/12 04:00:24;;;;;;;16.10;5.22;;;;;;;;;;4975709;28;20054;-79
2023/09/12 04:02:57;;;;;;;14.23;5.35;;;;;;;;;;4957001;28;20047;-79
2023/09/12 04:05:31;;;;;;;13.85;5.30;;;;;;;;;;4957165;28;20051;-79
2023/09/12 04:08:04;;;;;;;16.40;6.18;;;;;;;;;;4957967;28;20053;-79
2023/09/12 04:10:36;;;;;;;11.88;5.43;;;;;;;;;;4957992;28;20066;-79
2023/09/12 04:13:09;;;;;;;13.85;5.10;;;;;;;;;;4976190;28;20039;-80
2023/09/12 04:15:45;;;;;;;15.30;5.88;;;;;;;;;;4958320;28;20053;-80
2023/09/12 04:18:17;;;;;;;10.07;5.35;;;;;;;;;;4957598;28;20047;-80
2023/09/12 04:20:48;;;;;;;16.77;7.00;;;;;;;;;;4975598;28;20151;-79
2023/09/12 04:23:21;;;;;;;19.02;9.57;;;;;;;;;;4958427;28;20051;-80
2023/09/12 04:25:53;;;;;;;23.65;9.20;;;;;;;;;;4975590;28;20047;-80
2023/09/12 04:28:26;;;;;;;20.05;8.25;;;;;;;;;;4974863;28;20053;-79
2023/09/12 04:31:05;;;;;;;19.63;7.30;;;;;;;;;;4956303;28;20053;-79
2023/09/12 04:33:36;;;;;;;14.32;6.38;;;;;;;;;;4957181;28;20071;-79
2023/09/12 04:36:06;;;;;;;15.07;5.65;;;;;;;;;;4957029;28;20055;-79
2023/09/12 04:38:39;;;;;;;14.40;6.32;;;;;;;;;;4956612;28;20050;-79
2023/09/12 04:41:16;;;;;;;;;;;;;;;;;;4941733;28;20043;-81
2023/09/12 04:43:48;;;;;;;14.77;6.57;;;;;;;;;;4975294;28;20341;-80
2023/09/12 04:46:21;;;;;;;14.38;6.15;;;;;;;;;;4941002;28;20537;-79
2023/09/12 04:48:53;;;;;;;17.10;6.15;;;;;;;;;;4974578;28;20041;-80
2023/09/12 04:51:26;;;;;;;10.88;5.88;;;;;;;;;;4974637;28;20043;-80
2023/09/12 04:53:57;;;;;;;15.27;5.05;;;;;;;;;;4941530;28;20050;-79
2023/09/12 04:56:29;;;;;;;17.80;6.57;;;;;;;;;;4956723;28;20054;-79
2023/09/12 04:59:00;;;;;;;13.25;6.68;;;;;;;;;;4956575;28;20039;-79
2023/09/12 05:01:33;;;;;;;16.02;6.13;;;;;;;;;;4978625;28;20039;-78
2023/09/12 05:04:04;;;;;;;15.85;6.93;;;;;;;;;;4998033;28;20043;-79
2023/09/12 05:06:41;;;;;;;14.77;6.13;;;;;;;;;;4978640;28;20046;-78
2023/09/12 05:09:13;;;;;;;15.90;6.95;;;;;;;;;;4995949;28;20050;-79
2023/09/12 05:11:46;;;;;;;12.73;5.45;;;;;;;;;;4980485;28;20041;-81
2023/09/12 05:14:17;;;;;;;10.07;4.82;;;;;;;;;;4998240;28;20023;-80
2023/09/12 05:16:49;;;;;;;11.57;5.60;;;;;;;;;;4980487;28;20057;-80
2023/09/12 05:19:20;;;;;;;12.30;6.05;;;;;;;;;;4969026;28;20370;-78
2023/09/12 05:21:56;;;;;;;15.82;5.43;;;;;;;;;;4974595;28;20351;-79
2023/09/12 05:24:28;;;;;;;14.38;6.65;;;;;;;;;;4974049;28;20050;-79
2023/09/12 05:27:02;;;;;;;17.00;6.35;;;;;;;;;;4974098;28;20034;-78
2023/09/12 05:29:34;;;;;;;12.40;5.35;;;;;;;;;;4955729;28;20473;-78
2023/09/12 05:32:08;;;;;;;11.32;4.68;;;;;;;;;;4955775;28;20055;-78
2023/09/12 05:34:40;;;;;;;11.20;5.10;;;;;;;;;;4956110;28;20043;-79
2023/09/12 05:37:11;;;;;;;12.75;5.55;;;;;;;;;;4974264;28;20504;-78
2023/09/12 05:39:47;;;;;;;16.23;5.93;;;;;;;;;;4955942;28;20069;-78
2023/09/12 05:42:22;;;;;;;18.02;6.82;;;;;;;;;;4974191;28;20042;-78
2023/09/12 05:44:53;;;;;;;24.95;9.80;;;;;;;;;;4958858;28;20046;-79
2023/09/12 05:47:24;;;;;;;24.40;11.00;;;;;;;;;;4959696;28;20394;-79
2023/09/12 05:49:58;;;;;;;22.35;9.35;;;;;;;;;;4944302;28;20536;-80
2023/09/12 05:52:30;;;;;;;25.50;10.85;;;;;;;;;;4977657;28;20042;-79
2023/09/12 05:55:04;;;;;;;20.27;10.07;;;;;;;;;;4977326;28;20041;-80
2023/09/12 05:57:35;;;;;;;20.52;9.88;;;;;;;;;;4977367;28;20497;-79
2023/09/12 06:00:11;;;;;;;18.50;8.45;;;;;;;;;;4959147;28;20054;-79
2023/09/12 06:02:47;;;;;;;16.88;8.02;;;;;;;;;;4944461;28;20918;-80
2023/09/12 06:05:19;;;;;;;26.17;10.30;;;;;;;;;;4977484;28;20054;-79
2023/09/12 06:07:50;;;;;;;17.70;6.90;;;;;;;;;;4977080;28;20054;-79
2023/09/12 06:10:22;;;;;;;17.00;8.15;;;;;;;;;;4977306;28;20047;-79
2023/09/12 06:12:53;;;;;;;19.13;6.80;;;;;;;;;;4977440;28;20039;-78
2023/09/12 06:15:27;;;;;;;17.75;8.15;;;;;;;;;;4977412;28;20050;-79
2023/09/12 06:18:02;;;;;;;17.30;6.57;;;;;;;;;;4977035;28;20374;-80
2023/09/12 06:20:34;;;;;;;12.63;6.05;;;;;;;;;;4976989;28;20038;-78
2023/09/12 06:23:05;;;;;;;11.60;5.60;;;;;;;;;;4977115;28;20470;-77
2023/09/12 06:25:36;;;;;;;15.45;6.93;;;;;;;;;;4977344;28;20061;-78
2023/09/12 06:28:11;;;;;;;15.75;7.30;;;;;;;;;;4958193;28;20069;-80
2023/09/12 06:30:46;;;;;;;14.45;7.65;;;;;;;;;;4977144;28;20043;-79
2023/09/12 06:33:19;;;;;;;14.35;6.90;;;;;;;;;;4976825;28;20046;-79
2023/09/12 06:35:52;;;;;;;15.50;7.28;;;;;;;;;;4976848;28;20043;-80
2023/09/12 06:38:24;;;;;;;16.27;6.90;;;;;;;;;;4976746;28;20046;-79
2023/09/12 06:40:56;;;;;;;19.48;7.35;;;;;;;;;;4959105;28;20065;-80
2023/09/12 06:43:32;;;;;;;15.85;6.93;;;;;;;;;;4977275;28;20047;-78
2023/09/12 06:46:04;;;;;;;18.90;7.72;;;;;;;;;;4977152;28;20054;-78
2023/09/12 06:48:37;;;;;;;14.63;6.70;;;;;;;;;;4976415;28;20046;-79
2023/09/12 06:51:09;;;;;;;18.00;7.18;;;;;;;;;;4976694;28;20057;-79
2023/09/12 06:53:48;;;;;;;19.95;7.47;;;;;;;;;;4960366;28;20046;-80
2023/09/12 06:56:21;;;;;;;15.40;7.30;;;;;;;;;;4976407;28;20050;-79
2023/09/12 06:58:53;;;;;;;;;;;;;;;;;;4976732;28;20043;-78
2023/09/12 07:01:23;;;;;;;;;;;;;;;;;;4976840;28;19918;-79
2023/09/12 07:03:56;;;;;;;18.00;7.10;;;;;;;;;;4976778;28;19940;-79
2023/09/12 07:06:27;;;;;;;16.42;7.03;;;;;;;;;;4958312;28;20047;-78
2023/09/12 07:08:57;;;;;;;17.38;7.63;;;;;;;;;;4976263;28;20054;-78
2023/09/12 07:11:30;;;;;;;19.85;7.68;;;;;;;;;;4959179;28;20058;-79
2023/09/12 07:14:03;;;;;;;18.23;7.75;;;;;;;;;;4975601;28;20101;-79
2023/09/12 07:16:34;;;;;;;19.40;6.82;;;;;;;;;;4976077;28;20501;-78
2023/09/12 07:19:06;;;;;;;16.40;6.97;;;;;;;;;;4975881;28;20077;-79
2023/09/12 07:21:44;;;;;;;19.67;7.20;;;;;;;;;;4975942;28;20039;-79
2023/09/12 07:24:18;;;;;;;19.42;6.82;;;;;;;;;;4975981;28;20050;-78
2023/09/12 07:26:49;;;;;;;17.08;6.47;;;;;;;;;;4976204;28;20481;-78
2023/09/12 07:29:21;;;;;;;;;;;;;;;;;;4976246;28;20038;-79
2023/09/12 07:31:56;;;;;;;14.35;5.93;;;;;;;;;;4975875;28;19925;-80
2023/09/12 07:34:33;;;;;;;15.23;7.07;;;;;;;;;;4975518;28;20045;-79
2023/09/12 07:37:05;;;;;;;15.00;6.57;;;;;;;;;;4965598;28;20039;-78
2023/09/12 07:39:36;;;;;;;18.63;6.68;;;;;;;;;;4956067;29;20482;-80
2023/09/12 07:42:07;;;;;;;16.85;7.55;;;;;;;;;;4956673;29;20062;-78
2023/09/12 07:44:40;;;;;;;12.98;6.03;;;;;;;;;;4956069;29;20050;-79
2023/09/12 07:47:11;;;;;;;16.25;7.13;;;;;;;;;;4956192;29;20054;-77
2023/09/12 07:49:41;;;;;;;14.93;6.40;;;;;;;;;;4955993;28;20074;-78
2023/09/12 07:52:13;;;;;;;12.75;6.32;;;;;;;;;;4956308;29;20038;-78
2023/09/12 07:54:45;;;;;;;15.88;6.38;;;;;;;;;;4956183;29;20047;-77
2023/09/12 07:57:17;;;;;;;18.73;6.13;;;;;;;;;;4955805;29;20043;-78
2023/09/12 07:59:50;;;;;;;17.15;6.60;;;;;;;;;;4956724;29;20043;-78
2023/09/12 08:02:21;;;;;;;15.35;6.20;;;;;;;;;;4937743;29;20047;-77
2023/09/12 08:04:54;;;;;;;17.85;6.78;;;;;;;;;;4956069;29;20047;-77
2023/09/12 08:07:28;;;;;;;17.50;6.38;;;;;;;;;;4955498;28;20069;-78
2023/09/12 08:10:00;;;;;;;;;;;;;;;;;;4956167;29;20483;-80
2023/09/12 08:12:31;;;;;;;14.20;5.43;;;;;;;;;;4938092;29;19919;-78
2023/09/12 08:15:08;;;;;;;12.05;5.32;;;;;;;;;;4955828;29;20150;-77
2023/09/12 08:17:40;;;;;;;16.48;5.50;;;;;;;;;;4937799;29;20482;-78
2023/09/12 08:20:12;;;;;;;12.27;4.65;;;;;;;;;;4955450;29;20038;-79
2023/09/12 08:22:43;;;;;;;13.35;4.93;;;;;;;;;;4937979;29;20055;-79
2023/09/12 08:25:18;;;;;;;13.48;5.22;;;;;;;;;;4955418;29;20050;-78
2023/09/12 08:27:48;;;;;;;12.35;5.13;;;;;;;;;;4955642;29;20039;-79
2023/09/12 08:30:25;;;;;;;11.55;5.15;;;;;;;;;;4955220;29;20043;-79
2023/09/12 08:32:56;;;;;;;13.52;4.57;;;;;;;;;;4955984;29;20047;-80
2023/09/12 08:35:27;;;;;;;12.23;4.47;;;;;;;;;;4955404;29;20046;-79
2023/09/12 08:37:59;;;;;;;12.65;4.97;;;;;;;;;;4955169;29;20054;-80
2023/09/12 08:40:30;;;;;;;12.10;4.82;;;;;;;;;;4955416;29;20047;-78
2023/09/12 08:43:06;;;;;;;14.07;4.75;;;;;;;;;;4955632;29;20035;-79
2023/09/12 08:45:39;;;;;;;11.55;4.72;;;;;;;;;;4954712;29;20039;-79
2023/09/12 08:48:12;;;;;;;10.93;4.60;;;;;;;;;;4955002;29;20043;-79
2023/09/12 08:50:44;;;;;;;11.10;4.57;;;;;;;;;;4955098;29;20047;-79
2023/09/12 08:53:15;;;;;;;10.73;5.38;;;;;;;;;;4955642;29;20149;-79
2023/09/12 08:55:47;;;;;;;11.70;4.55;;;;;;;;;;4939587;28;20050;-79
2023/09/12 08:58:22;;;;;;;12.05;3.97;;;;;;;;;;4969333;28;20043;-79
2023/09/12 09:00:53;;;;;;;12.40;5.28;;;;;;;;;;4940587;28;20386;-79
2023/09/12 09:03:28;;;;;;;11.52;4.50;;;;;;;;;;4950403;28;20035;-79
2023/09/12 09:06:01;;;;;;;10.52;4.80;;;;;;;;;;4973998;28;20035;-79
2023/09/12 09:08:33;;;;;;;10.07;3.80;;;;;;;;;;4958293;28;20042;-79
2023/09/12 09:11:10;;;;;;;9.02;4.63;;;;;;;;;;4964587;28;20040;-79
2023/09/12 09:13:44;;;;;;;10.32;4.55;;;;;;;;;;4938461;29;20039;-79
2023/09/12 09:16:19;;;;;;;13.80;4.70;;;;;;;;;;4954925;29;20035;-80
2023/09/12 09:18:51;;;;;;;13.65;4.72;;;;;;;;;;4940442;29;20047;-78
2023/09/12 09:21:30;;;;;;;8.98;5.10;;;;;;;;;;4958941;29;20043;-79
2023/09/12 09:24:11;;;;;;;10.32;4.53;;;;;;;;;;4958490;29;20046;-79
2023/09/12 09:27:00;;;;;;;9.30;4.28;;;;;;;;;;4958883;29;20050;-79
2023/09/12 09:29:45;;;;;;;12.15;4.85;;;;;;;;;;4959093;29;20386;-79
2023/09/12 09:32:21;;;;;;;11.10;4.88;;;;;;;;;;4940999;29;20055;-79
2023/09/12 09:34:56;;;;;;;10.23;4.53;;;;;;;;;;4958702;29;20039;-79
2023/09/12 09:37:29;;;;;;;13.68;4.45;;;;;;;;;;4958639;29;20076;-79
2023/09/12 09:40:00;;;;;;;10.48;4.63;;;;;;;;;;4958633;29;20039;-79
2023/09/12 09:42:31;;;;;;;13.68;5.25;;;;;;;;;;4958774;29;20047;-79
2023/09/12 09:45:02;;;;;;;10.70;4.75;;;;;;;;;;4958665;29;20375;-81
2023/09/12 09:47:34;;;;;;;;;;;;;;;;;;4959272;29;20042;-80
2023/09/12 09:50:06;;;;;;;9.95;4.35;;;;;;;;;;4958461;29;19919;-79
2023/09/12 09:52:37;;;;;;;14.70;4.82;;;;;;;;;;4942201;29;20054;-80
2023/09/12 09:55:08;;;;;;;12.60;5.88;;;;;;;;;;4959124;28;20229;-79
2023/09/12 09:57:40;;;;;;;12.95;5.30;;;;;;;;;;4941718;29;20471;-78
2023/09/12 10:00:38;;;;;;;24.13;7.80;;;;;;;;;;4958423;29;20348;-79
2023/09/12 10:03:12;;;;;;;11.93;6.10;;;;;;;;;;4959662;28;20512;-80
2023/09/12 10:05:45;;;;;;;12.70;5.32;;;;;;;;;;4976724;28;20047;-79
2023/09/12 10:08:17;;;;;;;;;;;;;;;;;;4976712;28;20049;-79
2023/09/12 10:10:53;;;;;;;16.55;6.85;;;;;;;;;;4975776;28;19918;-79
2023/09/12 10:13:32;;;;;;;16.83;7.38;;;;;;;;;;4976051;28;20050;-79
2023/09/12 10:16:04;;;;;;;18.67;7.53;;;;;;;;;;4958620;28;20473;-80
2023/09/12 10:18:45;;;;;;;17.92;8.43;;;;;;;;;;4976357;28;20489;-78
2023/09/12 10:21:28;;;;;;;19.55;6.85;;;;;;;;;;4976478;28;20034;-79
2023/09/12 10:24:03;;;;;;;18.40;7.30;;;;;;;;;;4975908;28;20049;-80
2023/09/12 10:26:35;;;;;;;17.98;6.53;;;;;;;;;;4976477;28;20417;-80
2023/09/12 10:29:08;;;;;;;18.63;6.78;;;;;;;;;;4975451;28;20045;-79
2023/09/12 10:31:41;;;;;;;19.73;6.53;;;;;;;;;;4959271;28;20501;-77
2023/09/12 10:34:15;;;;;;;16.55;4.60;;;;;;;;;;4976185;28;20478;-78
2023/09/12 10:36:49;;;;;;;12.00;4.18;;;;;;;;;;4975715;28;20061;-80
2023/09/12 10:39:26;;;;;;;14.13;5.10;;;;;;;;;;4943188;28;20046;-78
2023/09/12 10:41:59;;;;;;;7.70;3.65;;;;;;;;;;4975592;28;20043;-79
2023/09/12 10:44:32;;;;;;;13.07;3.30;;;;;;;;;;4976869;28;20047;-79
2023/09/12 10:47:06;;;;;;;6.68;2.30;;;;;;;;;;4977060;28;20062;-79
2023/09/12 10:49:38;;;;;;;5.85;2.63;;;;;;;;;;4975582;28;20042;-80
2023/09/12 10:52:10;;;;;;;7.00;2.60;;;;;;;;;;4973425;28;20142;-79
2023/09/12 10:54:41;;;;;;;16.88;2.42;;;;;;;;;;4975706;28;20039;-80
2023/09/12 10:57:15;;;;;;;7.45;2.05;;;;;;;;;;4959383;28;20054;-79
2023/09/12 11:00:08;;;;;;;8.07;2.10;;;;;;;;;;4975303;28;20045;-81
2023/09/12 11:02:42;;;;;;;5.97;1.83;;;;;;;;;;4975281;28;20421;-79
2023/09/12 11:05:29;;;;;;;3.47;1.90;;;;;;;;;;4975549;28;20049;-78
2023/09/12 11:08:04;;;;;;;4.90;2.00;;;;;;;;;;4975506;28;20043;-80
2023/09/12 11:10:36;;;;;;;5.07;1.83;;;;;;;;;;4975373;28;20051;-80
2023/09/12 11:13:19;;;;;;;4.60;1.65;;;;;;;;;;4975535;28;20046;-79
2023/09/12 11:16:12;;;;;;;19.77;6.90;;;;;;;;;;4975860;28;20047;-79
2023/09/12 11:19:18;;;;;;;6.22;2.15;;;;;;;;;;4976213;28;20335;-80
2023/09/12 11:21:51;;;;;;;8.43;2.50;;;;;;;;;;4978224;28;20046;-78
2023/09/12 11:24:23;;;;;;;5.88;1.80;;;;;;;;;;4998829;28;20043;-80
2023/09/12 11:27:01;;;;;;;6.43;2.30;;;;;;;;;;4999220;28;20031;-79
2023/09/12 11:29:40;;;;;;;5.47;1.90;;;;;;;;;;4984694;28;20103;-79
2023/09/12 11:32:33;;;;;;;4.68;1.73;;;;;;;;;;4986870;28;20041;-80
2023/09/12 11:35:10;;;;;;;8.60;1.73;;;;;;;;;;4976031;28;20035;-81
2023/09/12 11:37:52;;;;;;;6.78;1.90;;;;;;;;;;4993127;28;20035;-80
2023/09/12 11:40:44;;;;;;;8.60;2.10;;;;;;;;;;4998119;28;20057;-80
2023/09/12 11:43:24;;;;;;;8.15;1.98;;;;;;;;;;4998429;28;20041;-80
2023/09/12 11:46:01;;;;;;;11.52;2.33;;;;;;;;;;4977884;28;20466;-80
2023/09/12 11:48:33;;;;;;;5.78;2.20;;;;;;;;;;4974673;28;20054;-81
2023/09/12 11:51:09;;;;;;;10.82;2.42;;;;;;;;;;4974067;28;20055;-81
2023/09/12 11:53:55;;;;;;;6.55;2.10;;;;;;;;;;4957593;28;20045;-83
2023/09/12 11:56:29;;;;;;;6.28;1.80;;;;;;;;;;4974055;28;20760;-80
2023/09/12 11:59:03;;;;;;;6.65;2.10;;;;;;;;;;4964119;28;20506;-80
2023/09/12 12:01:34;;;;;;;6.03;2.03;;;;;;;;;;4954970;29;20047;-81
2023/09/12 12:04:10;;;;;;;6.70;1.70;;;;;;;;;;4954751;29;20039;-80
2023/09/12 12:06:44;;;;;;;8.95;2.10;;;;;;;;;;4937102;29;20063;-80
2023/09/12 12:09:21;;;;;;;4.55;1.55;;;;;;;;;;4936602;29;20054;-80
2023/09/12 12:11:52;;;;;;;10.25;2.05;;;;;;;;;;4954329;29;20382;-81
2023/09/12 12:14:36;;;;;;;5.07;1.60;;;;;;;;;;5110120;27;20398;-80
2023/09/12 12:17:13;;;;;;;3.88;1.88;;;;;;;;;;5109914;28;20055;-80
2023/09/12 12:19:47;;;;;;;5.90;2.00;;;;;;;;;;5119620;28;20034;-81
2023/09/12 12:22:18;;;;;;;6.00;1.98;;;;;;;;;;5130791;28;20035;-79
2023/09/12 12:24:51;;;;;;;6.20;1.70;;;;;;;;;;5130845;28;20046;-80
2023/09/12 12:27:23;;;;;;;7.72;1.75;;;;;;;;;;5128868;28;20062;-81
2023/09/12 12:29:59;;;;;;;6.10;1.73;;;;;;;;;;5130123;28;20046;-81
2023/09/12 12:32:29;;;;;;;6.65;2.03;;;;;;;;;;5128974;28;20047;-79
2023/09/12 12:35:03;;;;;;;6.00;1.83;;;;;;;;;;5118546;28;20040;-81
2023/09/12 12:37:56;;;;;;;5.88;1.52;;;;;;;;;;5109382;28;20031;-79
2023/09/12 12:40:42;;;;;;;7.18;1.48;;;;;;;;;;5109510;28;20040;-80
2023/09/12 12:43:21;;;;;;;4.80;1.70;;;;;;;;;;5093008;28;20044;-81
2023/09/12 12:45:57;;;;;;;6.78;1.55;;;;;;;;;;5108875;28;20044;-80
2023/09/12 12:48:33;;;;;;;3.60;1.83;;;;;;;;;;5109895;28;20036;-79
2023/09/12 12:51:17;;;;;;;8.63;1.77;;;;;;;;;;5109024;28;20036;-80
2023/09/12 12:53:50;;;;;;;8.68;1.80;;;;;;;;;;5091766;28;20502;-80
2023/09/12 12:56:31;;;;;;;7.78;1.90;;;;;;;;;;5089510;28;20040;-80
2023/09/12 12:59:09;;;;;;;4.78;1.70;;;;;;;;;;5089181;28;20033;-79
2023/09/12 13:01:45;;;;;;;11.90;1.70;;;;;;;;;;5089386;28;20036;-78
2023/09/12 13:04:18;;;;;;;5.30;1.73;;;;;;;;;;5088199;28;20056;-80
2023/09/12 13:06:50;;;;;;;6.22;1.95;;;;;;;;;;5087636;28;20044;-80
2023/09/12 13:09:21;;;;;;;;;;;;;;;;;;5089919;28;20040;-82
2023/09/12 13:11:57;;;;;;;8.10;1.83;;;;;;;;;;5088712;28;19920;-82
2023/09/12 13:14:30;;;;;;;4.25;1.55;;;;;;;;;;5089065;28;20044;-80
2023/09/12 13:17:04;;;;;;;8.30;2.00;;;;;;;;;;5089270;28;20040;-80
2023/09/12 13:19:38;;;;;;;4.25;1.60;;;;;;;;;;5088800;28;20478;-81
2023/09/12 13:22:12;;;;;;;6.95;1.52;;;;;;;;;;5089061;28;20467;-80
2023/09/12 13:24:46;;;;;;;7.03;1.50;;;;;;;;;;5081874;28;20036;-80
2023/09/12 13:27:18;;;;;;;4.60;1.70;;;;;;;;;;5074248;28;20048;-81
2023/09/12 13:29:55;;;;;;;7.75;1.90;;;;;;;;;;5075168;28;20040;-80
2023/09/12 13:32:28;;;;;;;6.35;1.83;;;;;;;;;;5073717;28;20044;-84
2023/09/12 13:34:59;;;;;;;5.25;2.00;;;;;;;;;;5090495;28;20047;-81
2023/09/12 13:37:33;;;;;;;9.25;2.20;;;;;;;;;;5086591;28;20044;-81
2023/09/12 13:40:06;;;;;;;6.18;1.67;;;;;;;;;;5074135;28;20044;-81
2023/09/12 13:42:37;;;;;;;4.85;1.80;;;;;;;;;;5074498;28;20044;-78
2023/09/12 13:45:09;;;;;;;4.70;1.90;;;;;;;;;;5074050;28;20051;-80
2023/09/12 13:47:42;;;;;;;4.20;1.63;;;;;;;;;;5090936;28;20506;-84
2023/09/12 13:50:15;;;;;;;6.03;1.63;;;;;;;;;;5093217;28;20044;-82
2023/09/12 13:52:46;;;;;;;5.70;1.67;;;;;;;;;;5094419;28;20047;-83
2023/09/12 13:55:17;;;;;;;6.82;1.88;;;;;;;;;;5094232;28;20039;-81
2023/09/12 13:58:06;;;;;;;6.82;1.80;;;;;;;;;;5094381;28;20078;-80
2023/09/12 14:00:40;;;;;;;10.98;2.47;;;;;;;;;;5094215;28;20386;-81
2023/09/12 14:03:11;;;;;;;6.68;2.03;;;;;;;;;;5093038;28;20055;-81
2023/09/12 14:05:44;;;;;;;5.57;2.10;;;;;;;;;;5094341;28;20362;-80
2023/09/12 14:08:16;;;;;;;3.50;1.40;;;;;;;;;;5093679;28;20044;-83
2023/09/12 14:10:49;;;;;;;5.80;1.50;;;;;;;;;;5093551;28;20044;-81
2023/09/12 14:13:20;;;;;;;7.47;1.75;;;;;;;;;;5093622;28;20403;-82
2023/09/12 14:15:53;;;;;;;4.32;1.90;;;;;;;;;;5092411;28;20051;-80
2023/09/12 14:18:26;;;;;;;9.48;1.85;;;;;;;;;;5093875;28;20047;-80
2023/09/12 14:21:03;;;;;;;8.35;1.98;;;;;;;;;;5093558;28;20036;-80
2023/09/12 14:23:37;;;;;;;;;;;;;;;;;;5094530;28;20382;-80
2023/09/12 14:26:07;;;;;;;5.90;1.63;;;;;;;;;;5094063;28;19939;-80
2023/09/12 14:28:41;;;;;;;5.47;1.73;;;;;;;;;;5093524;28;20050;-79
2023/09/12 14:31:14;;;;;;;9.48;1.98;;;;;;;;;;5094041;28;20044;-80
2023/09/12 14:33:49;;;;;;;4.00;1.45;;;;;;;;;;5093194;28;20052;-80
2023/09/12 14:40:24;;;;;;;6.88;1.65;;;;;;;;;;5097461;28;20051;-79
2023/09/12 14:42:57;;;;;;;5.38;1.52;;;;;;;;;;5093299;28;20055;-80
2023/09/12 14:45:30;;;;;;;4.07;1.90;;;;;;;;;;5093207;28;20032;-80
2023/09/12 14:48:01;;;;;;;7.38;2.30;;;;;;;;;;5092828;28;20028;-79
2023/09/12 14:50:39;;;;;;;9.32;1.88;;;;;;;;;;5093901;28;20040;-79
2023/09/12 14:53:13;;;;;;;16.23;2.60;;;;;;;;;;5093169;28;20043;-80
2023/09/12 14:55:45;;;;;;;6.70;2.05;;;;;;;;;;5092838;28;20486;-80
2023/09/12 14:58:17;;;;;;;3.88;1.85;;;;;;;;;;5093010;28;20048;-80
2023/09/12 15:00:48;;;;;;;4.45;2.03;;;;;;;;;;5091593;28;20047;-78
2023/09/12 15:03:21;;;;;;;7.00;2.03;;;;;;;;;;5090891;28;20051;-80
2023/09/12 15:05:54;;;;;;;7.20;1.70;;;;;;;;;;5092410;28;20048;-79
2023/09/12 15:08:26;;;;;;;5.03;2.05;;;;;;;;;;5091197;28;20051;-78
2023/09/12 15:11:00;;;;;;;6.50;2.33;;;;;;;;;;5092754;28;20382;-79
2023/09/12 15:13:35;;;;;;;3.53;2.00;;;;;;;;;;5109036;28;20496;-81
2023/09/12 15:16:08;;;;;;;5.97;2.00;;;;;;;;;;5111115;28;20044;-81
2023/09/12 15:18:42;;;;;;;6.43;2.40;;;;;;;;;;5113687;28;20035;-81
2023/09/12 15:21:15;;;;;;;5.78;2.17;;;;;;;;;;5114178;28;20493;-79
2023/09/12 15:23:47;;;;;;;8.70;2.28;;;;;;;;;;5103623;28;20051;-79
2023/09/12 15:26:26;;;;;;;10.27;2.40;;;;;;;;;;5093658;28;20047;-79